createdAt,value
2022-10-06T00:01:41.773Z,100568.59
2022-10-06T00:04:29.736Z,100573.28
2022-10-06T00:07:18.276Z,100568.31
2022-10-06T00:10:07.545Z,100583.91
2022-10-06T00:12:55.565Z,100591.09
2022-10-06T00:15:44.869Z,100591.38
2022-10-06T00:18:32.851Z,100600.97
2022-10-06T00:21:20.766Z,100597.84
2022-10-06T00:24:08.811Z,100602.00
2022-10-06T00:26:56.753Z,100595.59
2022-10-06T00:29:44.679Z,100594.06
2022-10-06T00:32:34.162Z,100584.13
2022-10-06T00:35:23.165Z,100595.63
2022-10-06T00:38:12.593Z,100598.75
2022-10-06T00:41:00.556Z,100603.91
2022-10-06T00:43:51.402Z,100588.88
2022-10-06T00:46:45.028Z,100599.13
2022-10-06T00:49:39.616Z,100601.13
2022-10-06T00:52:31.773Z,100599.53
2022-10-06T00:55:22.325Z,100601.16
2022-10-06T00:58:11.103Z,100601.06
2022-10-06T01:01:00.542Z,100610.66
2022-10-06T01:03:54.631Z,100630.53
2022-10-06T01:06:47.150Z,100643.25
2022-10-06T01:09:35.940Z,100642.56
2022-10-06T01:12:25.010Z,100655.66
2022-10-06T01:15:14.197Z,100660.84
2022-10-06T01:18:06.243Z,100665.63
2022-10-06T01:21:01.915Z,100645.81
2022-10-06T01:23:51.268Z,100652.09
2022-10-06T01:26:46.253Z,100657.22
2022-10-06T01:29:35.508Z,100662.75
2022-10-06T01:32:25.887Z,100656.81
2022-10-06T01:35:14.505Z,100663.16
2022-10-06T01:38:02.508Z,100667.88
2022-10-06T01:40:54.633Z,100675.88
2022-10-06T01:43:42.573Z,100669.50
2022-10-06T01:46:31.337Z,100608.19
2022-10-06T01:49:20.020Z,100672.78
2022-10-06T01:52:07.949Z,100607.88
2022-10-06T01:54:56.333Z,100685.06
2022-10-06T01:57:46.514Z,100687.84
2022-10-06T02:00:34.473Z,100687.91
2022-10-06T02:03:22.481Z,100688.25
2022-10-06T02:06:11.676Z,100693.41
2022-10-06T02:09:00.583Z,100685.84
2022-10-06T02:11:48.671Z,100692.97
2022-10-06T02:14:38.217Z,100695.75
2022-10-06T02:17:26.394Z,100691.75
2022-10-06T02:20:15.038Z,100704.03
2022-10-06T02:23:04.011Z,100704.84
2022-10-06T02:25:59.341Z,100712.41
2022-10-06T02:28:49.755Z,100717.97
2022-10-06T02:31:43.004Z,100725.91
2022-10-06T02:34:31.134Z,100727.06
2022-10-06T02:37:19.156Z,100725.03
2022-10-06T02:40:08.665Z,100727.88
2022-10-06T02:42:56.577Z,100731.44
2022-10-06T02:45:44.509Z,100737.00
2022-10-06T02:48:35.486Z,100738.59
2022-10-06T02:51:25.417Z,100704.16
2022-10-06T02:54:13.866Z,100762.81
2022-10-06T02:57:01.814Z,100766.00
2022-10-06T02:59:49.777Z,100766.44
2022-10-06T03:02:37.913Z,100772.81
2022-10-06T03:05:27.510Z,100772.03
2022-10-06T03:08:15.499Z,100797.06
2022-10-06T03:11:06.602Z,100753.06
2022-10-06T03:13:54.743Z,100803.06
2022-10-06T03:16:43.913Z,100803.44
2022-10-06T03:19:40.777Z,100812.16
2022-10-06T03:22:32.481Z,100822.06
2022-10-06T03:25:20.727Z,100813.34
2022-10-06T03:28:08.732Z,100811.34
2022-10-06T03:31:02.545Z,100816.91
2022-10-06T03:33:51.637Z,100824.84
2022-10-06T03:36:39.613Z,100834.38
2022-10-06T03:39:28.992Z,100835.94
2022-10-06T03:42:16.898Z,100841.91
2022-10-06T03:45:07.472Z,100844.28
2022-10-06T03:47:56.151Z,100861.72
2022-10-06T03:50:45.862Z,100867.28
2022-10-06T03:53:36.062Z,100872.03
2022-10-06T03:56:26.966Z,100881.53
2022-10-06T03:59:17.416Z,100881.56
2022-10-06T04:02:07.101Z,100877.97
2022-10-06T04:04:57.909Z,100887.50
2022-10-06T04:07:45.844Z,100888.69
2022-10-06T04:10:34.426Z,100886.31
2022-10-06T04:13:23.918Z,100893.00
2022-10-06T04:16:14.059Z,100896.19
2022-10-06T04:19:04.398Z,100902.91
2022-10-06T04:21:53.869Z,100876.69
2022-10-06T04:24:44.586Z,100913.22
2022-10-06T04:27:32.592Z,100915.59
2022-10-06T04:30:30.998Z,100919.13
2022-10-06T04:33:20.267Z,100921.53
2022-10-06T04:36:09.912Z,100925.47
2022-10-06T04:38:59.451Z,100922.31
2022-10-06T04:41:49.062Z,100896.78
2022-10-06T04:44:44.679Z,100925.81
2022-10-06T04:47:34.200Z,100942.41
2022-10-06T04:50:22.626Z,100942.78
2022-10-06T04:53:26.378Z,100940.03
2022-10-06T04:56:16.317Z,100941.56
2022-10-06T04:59:04.633Z,100913.31
2022-10-06T05:01:56.083Z,100953.44
2022-10-06T05:04:45.925Z,100948.25
2022-10-06T05:07:36.007Z,100950.22
2022-10-06T05:10:23.922Z,100965.66
2022-10-06T05:13:12.499Z,100973.94
2022-10-06T05:16:01.657Z,100983.84
2022-10-06T05:18:53.159Z,100978.66
2022-10-06T05:21:42.386Z,100983.44
2022-10-06T05:24:33.473Z,100985.41
2022-10-06T05:27:21.778Z,100988.56
2022-10-06T05:30:11.226Z,101010.69
2022-10-06T05:32:59.737Z,101009.50
2022-10-06T05:35:52.775Z,101013.44
2022-10-06T05:38:42.665Z,101001.06
2022-10-06T05:41:32.827Z,101021.00
2022-10-06T05:44:24.352Z,101015.00
2022-10-06T05:47:12.415Z,101020.19
2022-10-06T05:50:00.447Z,101034.06
2022-10-06T05:52:48.321Z,101041.56
2022-10-06T05:55:37.883Z,101041.56
2022-10-06T05:58:26.349Z,101047.53
2022-10-06T06:01:16.898Z,101052.66
2022-10-06T06:03:49.382Z,101060.56
2022-10-06T06:06:19.471Z,101068.03
2022-10-06T06:08:48.407Z,101077.94
2022-10-06T06:11:17.471Z,101064.06
2022-10-06T06:13:45.527Z,101083.97
2022-10-06T06:16:15.627Z,101070.81
2022-10-06T06:18:44.319Z,101085.94
2022-10-06T06:21:14.298Z,101093.41
2022-10-06T06:23:46.285Z,101107.81
2022-10-06T06:26:18.492Z,101104.91
2022-10-06T06:28:50.900Z,101113.34
2022-10-06T06:31:21.992Z,101114.16
2022-10-06T06:33:53.115Z,101115.03
2022-10-06T06:36:25.606Z,101125.78
2022-10-06T06:38:55.336Z,101127.09
2022-10-06T06:41:26.470Z,101126.38
2022-10-06T06:44:01.118Z,101132.34
2022-10-06T06:46:51.947Z,101142.72
2022-10-06T06:49:20.584Z,101100.00
2022-10-06T06:51:54.239Z,101151.13
2022-10-06T06:54:24.692Z,101163.47
2022-10-06T06:56:58.308Z,101167.53
2022-10-06T06:59:26.370Z,101163.94
2022-10-06T07:01:57.634Z,101165.16
2022-10-06T07:04:26.294Z,101162.13
2022-10-06T07:06:58.128Z,101174.50
2022-10-06T07:09:29.421Z,101176.16
2022-10-06T07:12:04.114Z,101170.22
2022-10-06T07:14:32.790Z,101176.19
2022-10-06T07:17:24.481Z,101177.78
2022-10-06T07:20:22.257Z,101184.97
2022-10-06T07:23:07.785Z,101198.75
2022-10-06T07:25:35.647Z,101205.81
2022-10-06T07:28:12.234Z,101210.09
2022-10-06T07:30:41.453Z,101218.75
2022-10-06T07:33:14.595Z,101230.16
2022-10-06T07:35:44.726Z,101226.13
2022-10-06T07:38:14.055Z,101224.34
2022-10-06T07:40:50.672Z,101234.72
2022-10-06T07:43:34.615Z,101243.78
2022-10-06T07:46:02.356Z,101245.75
2022-10-06T07:48:34.412Z,101246.06
2022-10-06T07:51:06.971Z,101246.34
2022-10-06T07:53:39.435Z,101246.34
2022-10-06T07:56:16.822Z,101255.13
2022-10-06T07:58:51.174Z,101259.28
2022-10-06T08:01:20.590Z,101254.19
2022-10-06T08:03:50.630Z,101267.97
2022-10-06T08:06:19.738Z,101258.88
2022-10-06T08:08:52.824Z,101262.94
2022-10-06T08:11:22.757Z,101255.06
2022-10-06T08:13:52.629Z,101262.72
2022-10-06T08:16:22.101Z,101268.59
2022-10-06T08:18:51.153Z,101268.28
2022-10-06T08:21:21.557Z,101271.13
2022-10-06T08:23:50.933Z,101277.53
2022-10-06T08:26:21.536Z,101276.72
2022-10-06T08:28:52.620Z,101283.53
2022-10-06T08:31:22.541Z,101286.75
2022-10-06T08:33:54.879Z,101292.72
2022-10-06T08:36:25.917Z,101290.78
2022-10-06T08:38:56.255Z,101294.38
2022-10-06T08:41:27.130Z,101293.16
2022-10-06T08:44:02.646Z,101293.16
2022-10-06T08:46:37.405Z,101294.81
2022-10-06T08:49:05.724Z,101290.09
2022-10-06T08:51:54.301Z,101291.66
2022-10-06T08:54:29.766Z,101294.41
2022-10-06T08:57:03.607Z,101294.41
2022-10-06T08:59:36.556Z,101294.81
2022-10-06T09:02:06.703Z,101305.25
2022-10-06T09:04:35.097Z,101295.69
2022-10-06T09:07:11.230Z,101298.47
2022-10-06T09:09:56.891Z,101309.19
2022-10-06T09:12:32.874Z,101307.19
2022-10-06T09:15:19.892Z,101308.41
2022-10-06T09:17:55.125Z,101305.25
2022-10-06T09:20:29.620Z,101300.88
2022-10-06T09:22:58.242Z,101319.94
2022-10-06T09:25:29.057Z,101313.59
2022-10-06T09:27:58.552Z,101313.59
2022-10-06T09:30:28.360Z,101321.13
2022-10-06T09:33:00.044Z,101321.53
2022-10-06T09:35:29.989Z,101331.41
2022-10-06T09:38:00.684Z,101329.47
2022-10-06T09:40:40.224Z,101330.28
2022-10-06T09:43:21.256Z,101331.47
2022-10-06T09:45:51.628Z,101332.28
2022-10-06T09:48:24.726Z,101340.66
2022-10-06T09:51:09.360Z,101332.28
2022-10-06T09:53:39.463Z,101331.06
2022-10-06T09:56:15.566Z,101336.25
2022-10-06T09:58:56.228Z,101331.88
2022-10-06T10:01:27.395Z,101333.50
2022-10-06T10:06:45.509Z,101336.25
2022-10-06T10:09:26.992Z,101329.13
2022-10-06T10:12:31.262Z,101337.06
2022-10-06T10:15:03.930Z,101331.84
2022-10-06T10:17:48.949Z,101331.84
2022-10-06T10:20:35.079Z,101323.44
2022-10-06T10:23:07.171Z,101322.66
2022-10-06T10:25:58.418Z,101335.69
2022-10-06T10:28:46.866Z,101324.97
2022-10-06T10:31:22.178Z,101309.75
2022-10-06T10:34:11.961Z,101329.94
2022-10-06T10:36:47.017Z,101328.66
2022-10-06T10:39:26.811Z,101334.31
2022-10-06T10:41:58.104Z,101332.63
2022-10-06T10:44:30.877Z,101334.97
2022-10-06T10:47:11.694Z,101317.28
2022-10-06T10:49:46.584Z,101331.09
2022-10-06T10:52:20.225Z,101335.00
2022-10-06T10:54:52.459Z,101332.34
2022-10-06T10:57:23.534Z,101330.50
2022-10-06T11:00:00.645Z,101333.38
2022-10-06T11:02:29.151Z,101338.94
2022-10-06T11:05:04.278Z,101337.25
2022-10-06T11:07:37.961Z,101328.09
2022-10-06T11:10:14.741Z,101330.00
2022-10-06T11:12:58.401Z,101330.56
2022-10-06T11:15:41.219Z,101335.16
2022-10-06T11:18:23.332Z,101338.22
2022-10-06T11:20:56.740Z,101327.28
2022-10-06T11:23:41.454Z,101337.72
2022-10-06T11:26:24.546Z,101328.63
2022-10-06T11:28:59.780Z,101339.09
2022-10-06T11:31:35.237Z,101332.97
2022-10-06T11:34:04.744Z,101329.03
2022-10-06T11:36:43.295Z,101321.06
2022-10-06T11:39:23.343Z,101322.56
2022-10-06T11:41:57.972Z,101315.16
2022-10-06T11:44:32.551Z,101323.25
2022-10-06T11:47:06.154Z,101319.16
2022-10-06T11:49:51.491Z,101314.38
2022-10-06T11:52:47.401Z,101321.69
2022-10-06T11:55:22.052Z,101322.06
2022-10-06T11:58:23.364Z,101311.69
2022-10-06T12:00:55.058Z,101310.03
2022-10-06T12:04:06.214Z,101309.50
2022-10-06T12:07:07.416Z,101224.22
2022-10-06T12:10:14.774Z,101301.47
2022-10-06T12:12:57.343Z,101302.16
2022-10-06T12:18:55.151Z,101287.00
2022-10-06T12:21:40.028Z,101285.16
2022-10-06T12:24:25.482Z,101281.34
2022-10-06T12:27:25.020Z,101285.41
2022-10-06T12:30:00.690Z,101286.59
2022-10-06T12:32:47.418Z,101296.16
2022-10-06T12:35:24.848Z,101282.31
2022-10-06T12:37:54.395Z,101278.19
2022-10-06T12:40:54.513Z,101270.22
2022-10-06T12:43:35.952Z,101276.06
2022-10-06T12:46:07.850Z,101274.25
2022-10-06T12:48:42.755Z,101271.91
2022-10-06T12:51:23.284Z,101273.66
2022-10-06T12:53:58.130Z,101263.88
2022-10-06T12:56:29.339Z,101266.91
2022-10-06T12:58:58.991Z,101271.63
2022-10-06T13:01:27.802Z,101274.72
2022-10-06T13:03:56.107Z,101273.22
2022-10-06T13:06:25.981Z,101268.88
2022-10-06T13:09:07.022Z,101266.03
2022-10-06T13:11:34.849Z,101254.94
2022-10-06T13:14:13.690Z,101259.41
2022-10-06T13:16:45.215Z,101255.94
2022-10-06T13:19:18.375Z,101251.09
2022-10-06T13:21:47.479Z,101258.38
2022-10-06T13:24:19.370Z,101257.56
2022-10-06T13:26:47.993Z,101258.38
2022-10-06T13:29:23.868Z,101258.47
2022-10-06T13:31:53.387Z,101247.88
2022-10-06T13:34:28.075Z,101248.25
2022-10-06T13:36:56.340Z,101250.25
2022-10-06T13:39:26.823Z,101251.38
2022-10-06T13:41:57.517Z,101245.53
2022-10-06T13:44:31.963Z,101249.00
2022-10-06T13:47:02.185Z,101247.03
2022-10-06T13:49:34.912Z,101252.91
2022-10-06T13:52:10.014Z,101252.00
2022-10-06T13:54:46.435Z,101239.94
2022-10-06T13:57:37.149Z,101244.84
2022-10-06T14:00:17.739Z,101242.69
2022-10-06T14:02:46.993Z,101250.66
2022-10-06T14:05:31.316Z,101248.19
2022-10-06T14:08:01.159Z,101222.38
2022-10-06T14:10:33.439Z,101240.63
2022-10-06T14:13:02.210Z,101220.28
2022-10-06T14:15:39.777Z,101240.03
2022-10-06T14:18:07.441Z,101240.91
2022-10-06T14:20:42.224Z,101238.91
2022-10-06T14:23:35.707Z,101242.84
2022-10-06T14:26:03.361Z,101237.63
2022-10-06T14:28:31.125Z,101239.59
2022-10-06T14:31:00.447Z,101231.59
2022-10-06T14:33:28.091Z,101226.25
2022-10-06T14:35:55.680Z,101223.56
2022-10-06T14:38:24.533Z,101222.75
2022-10-06T14:40:52.169Z,101230.06
2022-10-06T14:43:19.824Z,101225.00
2022-10-06T14:45:47.779Z,101227.84
2022-10-06T14:48:16.713Z,101220.69
2022-10-06T14:50:45.106Z,101219.09
2022-10-06T14:53:15.338Z,101221.16
2022-10-06T14:55:44.720Z,101217.13
2022-10-06T14:58:12.949Z,101213.16
2022-10-06T15:00:42.865Z,101212.69
2022-10-06T15:03:10.865Z,101222.66
2022-10-06T15:06:00.222Z,101223.50
2022-10-06T15:08:26.910Z,101217.94
2022-10-06T15:10:54.537Z,101206.44
2022-10-06T15:13:22.179Z,101204.84
2022-10-06T15:15:51.127Z,101203.25
2022-10-06T15:18:19.059Z,101200.47
2022-10-06T15:20:49.026Z,101204.03
2022-10-06T15:23:17.273Z,101193.69
2022-10-06T15:26:09.876Z,101197.28
2022-10-06T15:28:55.404Z,101202.47
2022-10-06T15:31:24.719Z,101202.09
2022-10-06T15:33:53.341Z,101200.16
2022-10-06T15:36:23.887Z,101171.16
2022-10-06T15:38:52.094Z,101190.66
2022-10-06T15:41:20.450Z,101187.50
2022-10-06T15:43:57.366Z,101188.28
2022-10-06T15:46:27.313Z,101191.44
2022-10-06T15:48:56.197Z,101195.78
2022-10-06T15:51:25.418Z,101192.16
2022-10-06T15:53:53.122Z,101194.91
2022-10-06T15:56:20.893Z,101189.28
2022-10-06T15:58:48.703Z,101190.78
2022-10-06T16:01:35.363Z,101201.84
2022-10-06T16:04:11.171Z,101194.25
2022-10-06T16:06:43.812Z,101197.34
2022-10-06T16:09:13.033Z,101190.53
2022-10-06T16:11:40.852Z,101200.38
2022-10-06T16:14:09.423Z,101195.06
2022-10-06T16:16:42.610Z,101196.56
2022-10-06T16:19:11.249Z,101190.53
2022-10-06T16:21:41.271Z,101183.19
2022-10-06T16:24:09.067Z,101183.34
2022-10-06T16:26:36.763Z,101195.50
2022-10-06T16:29:04.808Z,101187.91
2022-10-06T16:31:32.727Z,101192.53
2022-10-06T16:34:00.469Z,101160.06
2022-10-06T16:36:28.260Z,101189.81
2022-10-06T16:38:57.870Z,101191.84
2022-10-06T16:41:26.140Z,101192.88
2022-10-06T16:43:54.775Z,101195.91
2022-10-06T16:46:24.332Z,101197.66
2022-10-06T16:48:53.504Z,101197.38
2022-10-06T16:51:22.505Z,101192.59
2022-10-06T16:53:51.937Z,101194.44
2022-10-06T16:56:22.897Z,101200.22
2022-10-06T16:58:53.851Z,101203.38
2022-10-06T17:01:23.806Z,101194.06
2022-10-06T17:03:58.655Z,101205.13
2022-10-06T17:06:26.883Z,101203.91
2022-10-06T17:08:54.585Z,101200.31
2022-10-06T17:11:25.910Z,101202.09
2022-10-06T17:13:55.647Z,101200.66
2022-10-06T17:16:25.630Z,101205.56
2022-10-06T17:18:55.620Z,101203.31
2022-10-06T17:21:44.848Z,101203.00
2022-10-06T17:24:11.613Z,101204.19
2022-10-06T17:26:42.531Z,101211.50
2022-10-06T17:29:14.978Z,101211.69
2022-10-06T17:31:43.987Z,101213.78
2022-10-06T17:34:15.067Z,101218.31
2022-10-06T17:36:48.304Z,101214.50
2022-10-06T17:39:18.061Z,101212.72
2022-10-06T17:41:48.819Z,101219.44
2022-10-06T17:44:22.348Z,101224.34
2022-10-06T17:46:51.720Z,101222.66
2022-10-06T17:49:21.401Z,101223.00
2022-10-06T17:51:50.000Z,101219.78
2022-10-06T17:54:19.969Z,101219.28
2022-10-06T17:56:50.478Z,101215.25
2022-10-06T17:59:21.524Z,101196.66
2022-10-06T18:01:51.141Z,101225.47
2022-10-06T18:04:20.067Z,101217.28
2022-10-06T18:06:48.649Z,101214.44
2022-10-06T18:09:17.053Z,101216.84
2022-10-06T18:11:45.739Z,101222.00
2022-10-06T18:14:15.916Z,101214.06
2022-10-06T18:16:45.375Z,101216.94
2022-10-06T18:19:14.583Z,101214.91
2022-10-06T18:21:43.496Z,101188.38
2022-10-06T18:24:15.362Z,101218.06
2022-10-06T18:26:43.187Z,101213.78
2022-10-06T18:29:11.570Z,101217.66
2022-10-06T18:31:40.594Z,101223.50
2022-10-06T18:36:57.829Z,101214.50
2022-10-06T18:39:25.568Z,101212.81
2022-10-06T18:41:53.580Z,101210.66
2022-10-06T18:44:35.183Z,101211.41
2022-10-06T18:47:22.192Z,101209.78
2022-10-06T18:49:49.798Z,101211.03
2022-10-06T18:52:17.564Z,101211.63
2022-10-06T18:54:45.919Z,101210.81
2022-10-06T18:57:13.485Z,101209.44
2022-10-06T18:59:41.080Z,101213.53
2022-10-06T19:02:11.546Z,101206.31
2022-10-06T19:04:39.560Z,101207.16
2022-10-06T19:07:07.157Z,101210.00
2022-10-06T19:09:34.827Z,101208.25
2022-10-06T19:12:02.688Z,101211.25
2022-10-06T19:14:34.656Z,101213.94
2022-10-06T19:17:04.082Z,101205.03
2022-10-06T19:19:34.657Z,101204.88
2022-10-06T19:22:04.373Z,101211.75
2022-10-06T19:24:35.736Z,101208.41
2022-10-06T19:27:05.225Z,101216.69
2022-10-06T19:29:36.944Z,101206.66
2022-10-06T19:32:07.037Z,101214.63
2022-10-06T19:34:38.252Z,101198.59
2022-10-06T19:37:06.191Z,101217.72
2022-10-06T19:39:39.623Z,101208.25
2022-10-06T19:42:25.191Z,101205.50
2022-10-06T19:44:53.408Z,101215.75
2022-10-06T19:47:21.249Z,101208.72
2022-10-06T19:49:50.326Z,101212.38
2022-10-06T19:52:17.899Z,101218.41
2022-10-06T19:54:46.043Z,101219.72
2022-10-06T19:57:13.945Z,101220.91
2022-10-06T19:59:41.561Z,101229.72
2022-10-06T20:02:10.134Z,101180.56
2022-10-06T20:04:57.834Z,101222.16
2022-10-06T20:07:47.330Z,101221.63
2022-10-06T20:10:35.483Z,101235.50
2022-10-06T20:13:23.387Z,101221.72
2022-10-06T20:16:14.735Z,101221.47
2022-10-06T20:19:02.944Z,101228.50
2022-10-06T20:21:53.176Z,101228.06
2022-10-06T20:24:41.135Z,101220.91
2022-10-06T20:27:28.986Z,101162.75
2022-10-06T20:30:16.905Z,101219.31
2022-10-06T20:33:07.373Z,101222.41
2022-10-06T20:35:55.293Z,101218.06
2022-10-06T20:39:02.646Z,101220.38
2022-10-06T20:41:50.898Z,101215.22
2022-10-06T20:44:38.769Z,101213.16
2022-10-06T20:47:26.829Z,101209.72
2022-10-06T20:50:14.887Z,101214.91
2022-10-06T20:53:02.944Z,101219.44
2022-10-06T20:55:55.758Z,101209.00
2022-10-06T20:58:43.707Z,101205.16
2022-10-06T21:01:31.974Z,101206.75
2022-10-06T21:04:20.889Z,101201.69
2022-10-06T21:07:08.714Z,101203.19
2022-10-06T21:09:56.573Z,101199.69
2022-10-06T21:12:46.071Z,101203.84
2022-10-06T21:15:34.159Z,101198.44
2022-10-06T21:18:22.462Z,101188.59
2022-10-06T21:21:11.557Z,101200.28
2022-10-06T21:23:59.421Z,101195.72
2022-10-06T21:26:47.599Z,101190.94
2022-10-06T21:29:37.179Z,101190.66
2022-10-06T21:32:25.297Z,101191.88
2022-10-06T21:35:13.150Z,101180.31
2022-10-06T21:38:01.028Z,101184.09
2022-10-06T21:40:48.895Z,101182.84
2022-10-06T21:43:36.767Z,101180.09
2022-10-06T21:46:29.073Z,101178.38
2022-10-06T21:49:19.148Z,101178.72
2022-10-06T21:52:07.086Z,101175.84
2022-10-06T21:54:54.943Z,101174.94
2022-10-06T21:57:43.043Z,101169.38
2022-10-06T22:00:31.077Z,101172.94
2022-10-06T22:03:20.242Z,101177.53
2022-10-06T22:06:09.758Z,101176.00
2022-10-06T22:08:58.880Z,101172.59
2022-10-06T22:11:46.742Z,101171.31
2022-10-06T22:14:34.603Z,101174.88
2022-10-06T22:17:22.477Z,101170.59
2022-10-06T22:20:11.882Z,101163.41
2022-10-06T22:23:04.075Z,101163.00
2022-10-06T22:25:56.551Z,101168.94
2022-10-06T22:28:48.862Z,101156.84
2022-10-06T22:31:39.665Z,101153.97
2022-10-06T22:34:28.116Z,101157.81
2022-10-06T22:37:17.351Z,101144.53
2022-10-06T22:40:07.783Z,101147.84
2022-10-06T22:42:55.816Z,101154.13
2022-10-06T22:45:43.692Z,101154.38
2022-10-06T22:48:31.597Z,101145.88
2022-10-06T22:51:19.444Z,101141.69
2022-10-06T22:54:08.947Z,101139.47
2022-10-06T22:56:56.835Z,101133.31
2022-10-06T22:59:45.127Z,101129.06
2022-10-06T23:02:33.046Z,101123.69
2022-10-06T23:05:21.235Z,101125.41
2022-10-06T23:08:09.315Z,101124.16
2022-10-06T23:11:04.522Z,101116.63
2022-10-06T23:13:52.964Z,101126.25
2022-10-06T23:16:40.870Z,101117.75
2022-10-06T23:19:28.952Z,101112.06
2022-10-06T23:22:16.953Z,101115.50
2022-10-06T23:25:05.661Z,101098.31
2022-10-06T23:27:54.890Z,101110.09
2022-10-06T23:30:43.426Z,101113.66
2022-10-06T23:33:32.290Z,101103.47
2022-10-06T23:36:20.410Z,101106.53
2022-10-06T23:39:08.236Z,101108.38
2022-10-06T23:41:56.110Z,101107.13
2022-10-06T23:44:45.298Z,101102.88
2022-10-06T23:47:33.149Z,101099.66
2022-10-06T23:50:21.162Z,101097.16
2022-10-06T23:53:09.180Z,101088.34
2022-10-06T23:55:57.841Z,101086.41
2022-10-06T23:58:45.715Z,101077.03
